Time;durP1;ratioP1;P1;durP2;ratioP2;P2;SDS_P1;SDS_P2;PMS_P1;PMS_P2;Temp;Humidity;BMP_temperature;BMP_pressure;BME280_temperature;BME280_humidity;BME280_pressure;Samples;Min_cycle;Max_cycle;Signal;HPM_P1;HPM_P2
2023/10/05 00:00:39;;;;;;;4.65;1.30;;;;;;;12.88;87.84;102229.00;4948891;28;20032;-80
2023/10/05 00:03:06;;;;;;;3.90;1.40;;;;;;;12.84;88.03;102219.47;4952574;29;20094;-80
2023/10/05 00:05:35;;;;;;;3.63;1.30;;;;;;;12.86;88.03;102220.31;4951411;29;20426;-80
2023/10/05 00:08:02;;;;;;;3.97;1.02;;;;;;;12.83;88.05;102222.97;4943821;29;20146;-80
2023/10/05 00:10:28;;;;;;;5.80;1.52;;;;;;;12.84;88.21;102222.06;4952099;29;20031;-79
2023/10/05 00:12:54;;;;;;;3.95;1.05;;;;;;;12.84;88.07;102219.47;4952985;28;20091;-79
2023/10/05 00:15:23;;;;;;;5.35;1.30;;;;;;;12.82;88.09;102217.78;4951866;29;20122;-80
2023/10/05 00:17:49;;;;;;;5.05;1.58;;;;;;;12.82;88.40;102226.44;4952032;28;20106;-80
2023/10/05 00:20:21;;;;;;;4.28;1.50;;;;;;;12.81;88.30;102229.09;4953180;29;20123;-80
2023/10/05 00:22:49;;;;;;;6.22;1.42;;;;;;;12.82;88.30;102239.50;4947358;28;20106;-80
2023/10/05 00:25:17;;;;;;;5.68;1.60;;;;;;;12.81;88.21;102240.41;4948266;29;20031;-79
2023/10/05 00:27:44;;;;;;;4.32;1.30;;;;;;;12.83;88.23;102245.63;4947870;28;20027;-80
2023/10/05 00:30:12;;;;;;;4.95;1.75;;;;;;;12.84;88.43;102242.97;4941540;29;20034;-80
2023/10/05 00:32:39;;;;;;;5.80;1.60;;;;;;;12.82;88.29;102236.06;4948005;28;20027;-80
2023/10/05 00:37:42;;;;;;;7.80;1.45;;;;;;;12.82;88.51;102251.72;4947351;29;20394;-80
2023/10/05 00:40:11;;;;;;;4.90;1.40;;;;;;;12.81;88.47;102252.59;4948228;29;20027;-80
2023/10/05 00:42:37;;;;;;;3.65;1.38;;;;;;;12.79;88.51;102255.25;4939708;29;20034;-80
2023/10/05 00:45:05;;;;;;;3.58;1.30;;;;;;;12.80;88.60;102256.97;4941236;29;20117;-79
2023/10/05 00:47:30;;;;;;;4.88;1.40;;;;;;;12.79;88.37;102254.38;4945284;28;20542;-80
2023/10/05 00:49:58;;;;;;;6.63;1.45;;;;;;;12.79;88.69;102249.16;4939712;29;20019;-79
2023/10/05 00:52:26;;;;;;;4.00;1.20;;;;;;;12.77;88.35;102254.41;4951671;29;20031;-80
2023/10/05 00:54:54;;;;;;;3.63;1.30;;;;;;;12.77;88.78;102254.41;4944993;28;20035;-80
2023/10/05 00:57:22;;;;;;;4.60;1.23;;;;;;;12.77;88.65;102254.41;4940848;29;20031;-80
2023/10/05 01:00:26;;;;;;;4.63;1.30;;;;;;;12.75;88.85;102249.19;4952090;28;20049;-80
2023/10/05 01:03:10;;;;;;;2.58;1.08;;;;;;;12.74;88.74;102257.03;4950945;29;21438;-80
2023/10/05 01:05:47;;;;;;;6.13;1.50;;;;;;;12.73;88.98;102261.38;4953680;29;20123;-80
2023/10/05 01:08:15;;;;;;;7.45;1.55;;;;;;;12.72;88.97;102261.41;4948360;29;20023;-79
2023/10/05 01:10:44;;;;;;;4.00;1.20;;;;;;;12.71;88.94;102260.56;4945678;29;20066;-80
2023/10/05 01:13:32;;;;;;;5.90;1.58;;;;;;;12.69;88.92;102259.72;4952639;28;20085;-80
2023/10/05 01:15:57;;;;;;;5.18;1.35;;;;;;;12.69;89.06;102253.59;4952221;29;20118;-80
2023/10/05 01:18:25;;;;;;;3.85;1.13;;;;;;;12.68;89.39;102250.16;4953419;28;20102;-80
2023/10/05 01:20:51;;;;;;;6.68;1.25;;;;;;;12.67;89.39;102250.16;4948655;28;20050;-80
2023/10/05 01:23:16;;;;;;;5.10;1.30;;;;;;;12.67;89.70;102255.38;4939772;28;20035;-80
2023/10/05 01:25:42;;;;;;;5.18;1.50;;;;;;;12.65;89.63;102252.78;4951888;29;20070;-80
2023/10/05 01:28:07;;;;;;;4.75;1.52;;;;;;;12.66;89.57;102258.88;4934834;29;20038;-80
2023/10/05 01:30:37;;;;;;;6.00;1.42;;;;;;;12.65;89.66;102251.91;4949313;28;20020;-80
2023/10/05 01:33:04;;;;;;;4.55;1.67;;;;;;;12.64;89.66;102256.28;4943650;29;21571;-80
2023/10/05 01:35:29;;;;;;;4.68;1.60;;;;;;;12.64;89.80;102252.81;4952108;29;20052;-79
2023/10/05 01:37:54;;;;;;;4.93;1.55;;;;;;;12.64;89.84;102250.22;4951912;28;20521;-80
2023/10/05 01:42:51;;;;;;;4.78;1.40;;;;;;;12.63;89.86;102248.47;4952853;28;20043;-80
2023/10/05 01:45:38;;;;;;;6.50;1.70;;;;;;;12.62;89.98;102251.97;4946879;29;20058;-80
2023/10/05 01:48:12;;;;;;;3.80;1.50;;;;;;;12.60;89.91;102242.41;4947838;28;20028;-79
2023/10/05 01:50:39;;;;;;;4.45;1.02;;;;;;;12.59;90.25;102240.69;4948033;29;20027;-80
2023/10/05 01:53:07;;;;;;;4.80;1.45;;;;;;;12.58;90.26;102235.47;4956173;28;20031;-80
2023/10/05 01:55:36;;;;;;;4.95;1.42;;;;;;;12.58;90.38;102231.13;4944009;29;20027;-80
2023/10/05 01:58:06;;;;;;;5.22;1.30;;;;;;;12.56;90.32;102232.88;4952725;28;20182;-80
2023/10/05 02:00:37;;;;;;;3.65;1.40;;;;;;;12.56;90.33;102227.66;4952867;29;20111;-80
2023/10/05 02:03:05;;;;;;;8.32;1.50;;;;;;;12.55;90.46;102223.31;4947978;28;20027;-80
2023/10/05 02:05:31;;;;;;;6.72;1.40;;;;;;;12.52;90.68;102231.19;4946256;28;20039;-80
2023/10/05 02:07:57;;;;;;;4.53;1.30;;;;;;;12.52;90.75;102220.72;4957641;29;20031;-82
2023/10/05 02:10:22;;;;;;;2.65;1.33;;;;;;;12.52;90.68;102225.94;4957122;29;20054;-80
2023/10/05 02:12:54;;;;;;;4.68;1.48;;;;;;;12.50;90.96;102234.69;4954740;28;20091;-79
2023/10/05 02:15:28;;;;;;;5.18;1.42;;;;;;;12.49;91.29;102231.22;4952600;28;20538;-80
2023/10/05 02:17:54;;;;;;;6.68;1.30;;;;;;;12.50;91.07;102232.09;4946662;29;20027;-80
2023/10/05 02:22:57;;;;;;;7.13;1.30;;;;;;;12.48;91.42;102224.25;4943764;29;20042;-80
2023/10/05 02:25:25;;;;;;;4.45;1.40;;;;;;;12.47;91.18;102217.31;4946085;29;20518;-80
2023/10/05 02:27:52;;;;;;;5.00;1.48;;;;;;;12.44;91.55;102215.59;4954736;28;20038;-80
2023/10/05 02:30:17;;;;;;;4.93;1.40;;;;;;;12.43;91.48;102226.06;4953763;28;20019;-80
2023/10/05 02:32:44;;;;;;;3.72;1.30;;;;;;;12.41;91.47;102226.06;4947490;28;20156;-80
2023/10/05 02:35:19;;;;;;;7.05;1.45;;;;;;;12.41;91.54;102223.47;4954031;29;20062;-79
2023/10/05 02:37:48;;;;;;;3.35;1.25;;;;;;;12.39;91.76;102214.78;4945124;29;20096;-80
2023/10/05 02:40:15;;;;;;;5.03;1.40;;;;;;;12.37;91.61;102219.19;4947848;29;20035;-79
2023/10/05 02:42:43;;;;;;;4.53;1.38;;;;;;;12.34;91.67;102211.38;4952244;28;20031;-80
2023/10/05 02:45:11;;;;;;;5.93;1.50;;;;;;;12.33;91.88;102208.78;4969529;28;20059;-80
2023/10/05 02:47:36;;;;;;;4.78;1.50;;;;;;;12.32;91.84;102212.25;4951398;29;20027;-80
2023/10/05 02:50:01;;;;;;;6.05;1.50;;;;;;;12.30;92.33;102207.06;4955947;29;20053;-80
2023/10/05 02:52:32;;;;;;;2.45;1.20;;;;;;;12.28;91.91;102207.09;4954421;28;20030;-80
2023/10/05 02:54:57;;;;;;;3.13;1.23;;;;;;;12.27;92.15;102210.59;4952697;28;20078;-79
2023/10/05 02:57:22;;;;;;;4.45;1.40;;;;;;;12.26;92.08;102208.84;4951842;28;20506;-80
2023/10/05 02:59:49;;;;;;;4.32;1.50;;;;;;;12.26;92.25;102201.03;4952906;29;20043;-80
2023/10/05 03:02:16;;;;;;;5.53;1.48;;;;;;;12.27;92.14;102209.72;4946022;29;20031;-80
2023/10/05 03:04:46;;;;;;;8.07;1.77;;;;;;;12.25;92.27;102203.63;4951058;28;20130;-80
2023/10/05 03:07:16;;;;;;;7.97;1.60;;;;;;;12.25;92.15;102206.25;4949359;29;20027;-80
2023/10/05 03:09:42;;;;;;;4.05;1.60;;;;;;;12.26;92.10;102207.97;4953258;28;20042;-80
2023/10/05 03:12:09;;;;;;;5.22;1.60;;;;;;;12.26;92.24;102207.97;4954679;29;20023;-80
2023/10/05 03:14:34;;;;;;;5.80;1.67;;;;;;;12.24;92.31;102201.91;4950590;28;20486;-79
2023/10/05 03:17:07;;;;;;;7.13;1.35;;;;;;;12.24;92.40;102204.50;4943002;28;20031;-80
2023/10/05 03:19:36;;;;;;;6.50;1.65;;;;;;;12.22;92.37;102212.38;4944938;29;20035;-80
2023/10/05 03:22:04;;;;;;;5.22;1.52;;;;;;;12.23;92.19;102206.28;4948002;29;20027;-79
2023/10/05 03:24:30;;;;;;;5.38;1.65;;;;;;;12.22;92.34;102204.53;4953605;29;20309;-80
2023/10/05 03:26:56;;;;;;;5.32;1.42;;;;;;;12.21;92.48;102197.59;4942691;28;20032;-80
2023/10/05 03:29:21;;;;;;;6.35;1.40;;;;;;;12.20;92.28;102193.25;4942393;29;20041;-80
2023/10/05 03:32:20;;;;;;;3.63;1.20;;;;;;;12.19;92.41;102196.75;4951618;29;20059;-80
2023/10/05 03:34:42;;;;;;;4.88;1.17;;;;;;;12.17;92.27;102192.44;4950432;29;20113;-80
2023/10/05 03:37:11;;;;;;;5.85;1.55;;;;;;;12.17;92.52;102193.28;4953537;29;20085;-80
2023/10/05 03:39:53;;;;;;;5.43;1.42;;;;;;;12.16;92.56;102196.78;4952205;29;20110;-79
2023/10/05 03:42:22;;;;;;;;;;;;;;;12.19;91.38;102201.97;4946784;28;20496;-79
2023/10/05 03:45:03;;;;;;;4.20;1.25;;;;;;;12.16;92.32;102199.38;4965034;28;19915;-80
2023/10/05 03:47:39;;;;;;;5.50;1.42;;;;;;;12.15;92.51;102205.47;4940816;29;20086;-79
2023/10/05 03:50:06;;;;;;;3.28;1.30;;;;;;;12.14;92.51;102198.53;4952618;28;20026;-80
2023/10/05 03:52:32;;;;;;;5.40;1.70;;;;;;;12.12;92.61;102195.09;4954695;28;20058;-80
2023/10/05 03:55:01;;;;;;;4.25;1.60;;;;;;;12.10;92.68;102195.09;4954743;28;20479;-80
2023/10/05 03:57:33;;;;;;;4.05;1.27;;;;;;;12.09;92.95;102195.13;4950239;28;20042;-80
2023/10/05 03:59:59;;;;;;;5.75;1.45;;;;;;;12.07;92.93;102192.50;4947265;28;20031;-80
2023/10/05 04:02:25;;;;;;;9.75;1.50;;;;;;;12.08;92.91;102206.44;4954404;28;20038;-80
2023/10/05 04:04:52;;;;;;;5.10;1.45;;;;;;;12.07;93.06;102212.53;4951725;29;20030;-79
2023/10/05 04:07:17;;;;;;;5.85;1.70;;;;;;;12.08;93.02;102216.88;4954602;28;20034;-80
2023/10/05 04:09:42;;;;;;;3.25;1.42;;;;;;;12.08;93.09;102203.81;4954599;29;20045;-80
2023/10/05 04:12:10;;;;;;;6.15;1.80;;;;;;;12.09;93.29;102197.72;4953479;29;20027;-80
2023/10/05 04:14:38;;;;;;;6.38;1.55;;;;;;;12.08;93.12;102198.63;4952398;29;20091;-80
2023/10/05 04:17:07;;;;;;;6.80;1.63;;;;;;;12.07;93.09;102202.94;4953422;29;20038;-80
2023/10/05 04:19:33;;;;;;;5.25;1.60;;;;;;;12.08;93.29;102198.63;4938431;29;20058;-79
2023/10/05 04:21:59;;;;;;;9.00;1.60;;;;;;;12.08;93.07;102209.03;4950085;28;20027;-80
2023/10/05 04:24:26;;;;;;;11.70;1.73;;;;;;;12.08;93.37;102211.66;4952017;28;20094;-80
2023/10/05 04:26:52;;;;;;;3.25;1.52;;;;;;;12.08;93.02;102209.91;4951056;29;20078;-80
2023/10/05 04:29:20;;;;;;;8.57;1.80;;;;;;;12.10;93.21;102209.91;4949483;28;20019;-80
2023/10/05 04:31:48;;;;;;;4.50;1.50;;;;;;;12.10;93.07;102212.50;4947059;29;20035;-80
2023/10/05 04:34:20;;;;;;;6.90;1.60;;;;;;;12.10;93.18;102205.53;4945638;28;20075;-80
2023/10/05 04:36:48;;;;;;;4.80;1.63;;;;;;;12.09;92.93;102209.00;4935653;29;20032;-80
2023/10/05 04:39:21;;;;;;;5.22;1.25;;;;;;;12.08;93.17;102214.25;4934786;29;20135;-80
2023/10/05 04:41:49;;;;;;;3.95;1.40;;;;;;;12.09;93.27;102216.00;4935465;29;20439;-80
2023/10/05 04:44:15;;;;;;;3.53;1.45;;;;;;;12.06;93.29;102216.03;4944496;29;20078;-80
2023/10/05 04:46:48;;;;;;;3.67;1.58;;;;;;;12.05;93.54;102214.28;4952991;28;20015;-80
2023/10/05 04:49:14;;;;;;;4.25;1.50;;;;;;;12.03;93.30;102205.59;4954531;28;20027;-80
2023/10/05 04:51:41;;;;;;;3.88;1.33;;;;;;;12.01;93.21;102207.38;4954494;28;20027;-80
2023/10/05 04:54:11;;;;;;;5.65;1.40;;;;;;;11.99;93.50;102205.63;4953885;28;20019;-80
2023/10/05 04:56:40;;;;;;;3.45;1.55;;;;;;;11.98;93.42;102208.25;4936617;28;20031;-80
2023/10/05 05:01:56;;;;;;;4.80;1.30;;;;;;;11.94;93.59;102210.03;4948937;28;20031;-80
2023/10/05 05:07:12;;;;;;;4.25;1.50;;;;;;;11.90;93.80;102208.31;4948680;29;20041;-80
2023/10/05 05:09:41;;;;;;;2.95;1.30;;;;;;;11.86;93.70;102206.59;4949982;29;20030;-80
2023/10/05 05:12:17;;;;;;;5.25;1.60;;;;;;;11.88;93.80;102202.25;4946933;28;20023;-80
2023/10/05 05:14:49;;;;;;;3.55;1.30;;;;;;;11.86;94.05;102204.00;4938580;29;20479;-79
2023/10/05 05:17:19;;;;;;;6.10;1.60;;;;;;;11.84;93.99;102206.63;4951513;28;20066;-79
2023/10/05 05:19:46;;;;;;;3.72;1.35;;;;;;;11.83;93.84;102210.13;4953169;28;20507;-79
2023/10/05 05:22:12;;;;;;;5.50;1.48;;;;;;;11.84;93.92;102211.84;4952996;28;20031;-80
2023/10/05 05:24:38;;;;;;;5.70;1.58;;;;;;;11.83;94.26;102207.50;4952471;28;20030;-80
2023/10/05 05:27:11;;;;;;;6.50;1.85;;;;;;;11.84;94.23;102214.44;4949075;28;20032;-80
2023/10/05 05:29:36;;;;;;;5.95;1.50;;;;;;;11.83;94.16;102214.44;4948890;28;20030;-80
2023/10/05 05:32:07;;;;;;;4.38;1.73;;;;;;;11.82;94.33;102218.81;4942185;28;20028;-80
2023/10/05 05:34:33;;;;;;;4.40;1.53;;;;;;;11.82;93.95;102220.53;4935963;29;20028;-80
2023/10/05 05:36:58;;;;;;;6.07;1.70;;;;;;;11.82;94.42;102217.94;4941487;29;20538;-80
2023/10/05 05:39:25;;;;;;;3.65;1.52;;;;;;;11.81;94.07;102222.28;4953727;29;20024;-80
2023/10/05 05:41:59;;;;;;;5.03;1.60;;;;;;;11.82;94.44;102220.53;4952474;29;20486;-80
2023/10/05 05:44:28;;;;;;;4.38;1.45;;;;;;;11.82;94.82;102230.97;4937860;29;20023;-79
2023/10/05 05:46:55;;;;;;;5.57;1.83;;;;;;;11.81;94.55;102229.25;4945991;28;20027;-80
2023/10/05 05:49:21;;;;;;;4.65;1.67;;;;;;;11.81;94.53;102237.06;4943943;29;20467;-80
2023/10/05 05:51:47;;;;;;;5.15;2.03;;;;;;;11.80;94.97;102232.72;4939817;29;20085;-80
2023/10/05 05:54:12;;;;;;;3.83;1.60;;;;;;;11.81;94.94;102237.06;4953304;28;20611;-80
2023/10/05 05:56:37;;;;;;;5.07;1.75;;;;;;;11.81;95.02;102239.66;4952288;29;20034;-80
2023/10/05 05:59:03;;;;;;;4.38;1.65;;;;;;;11.82;94.78;102254.44;4952089;29;20023;-80
2023/10/05 06:01:28;;;;;;;3.95;1.73;;;;;;;11.83;95.14;102240.53;4943239;29;20363;-79
2023/10/05 06:03:54;;;;;;;3.78;1.42;;;;;;;11.83;94.86;102249.22;4943338;28;20019;-80
2023/10/05 06:06:20;;;;;;;5.20;1.80;;;;;;;11.84;94.78;102244.84;4939400;28;20032;-80
2023/10/05 06:08:46;;;;;;;3.20;1.50;;;;;;;11.84;95.29;102237.03;4934075;28;20039;-79
2023/10/05 06:11:12;;;;;;;4.43;1.63;;;;;;;11.86;95.31;102244.88;4944433;29;20102;-80
2023/10/05 06:13:37;;;;;;;5.43;2.00;;;;;;;11.86;95.13;102250.94;4946207;28;20110;-79
2023/10/05 06:16:09;;;;;;;3.85;1.55;;;;;;;11.88;95.26;102251.78;4940615;28;20399;-80
2023/10/05 06:18:36;;;;;;;6.15;1.77;;;;;;;11.90;95.43;102252.66;4939513;29;20031;-80
2023/10/05 06:21:02;;;;;;;5.28;1.60;;;;;;;11.93;95.33;102250.00;4947261;29;20118;-80
2023/10/05 06:23:28;;;;;;;6.78;1.77;;;;;;;11.95;95.36;102250.00;4943195;28;20106;-80
2023/10/05 06:25:53;;;;;;;7.88;1.92;;;;;;;11.97;95.51;102256.06;4941156;29;20159;-80
2023/10/05 06:28:19;;;;;;;5.18;1.70;;;;;;;11.98;95.60;102250.84;4943430;29;20031;-80
2023/10/05 06:30:44;;;;;;;3.42;1.65;;;;;;;12.03;96.04;102263.00;4941185;29;20023;-79
2023/10/05 06:33:09;;;;;;;6.65;1.75;;;;;;;12.03;95.37;102260.38;4944637;28;20483;-80
2023/10/05 06:35:35;;;;;;;5.25;2.10;;;;;;;12.04;95.37;102262.97;4938947;29;20195;-80
2023/10/05 06:38:01;;;;;;;5.50;1.77;;;;;;;12.06;95.53;102258.59;4943675;29;20031;-80
2023/10/05 06:40:29;;;;;;;3.83;1.73;;;;;;;12.07;95.25;102260.34;4947652;29;20035;-79
2023/10/05 06:42:55;;;;;;;4.35;1.70;;;;;;;12.08;95.52;102267.28;4940100;29;20024;-79
2023/10/05 06:45:23;;;;;;;4.75;1.77;;;;;;;12.10;95.57;102267.28;4949876;29;20034;-79
2023/10/05 06:47:49;;;;;;;4.57;1.95;;;;;;;12.10;95.54;102272.50;4949059;29;20027;-79
2023/10/05 06:50:14;;;;;;;4.45;2.00;;;;;;;12.12;95.58;102279.44;4954885;29;20430;-80
2023/10/05 06:52:43;;;;;;;4.60;1.92;;;;;;;12.13;95.31;102275.06;4949660;28;20423;-80
2023/10/05 06:55:12;;;;;;;7.50;1.90;;;;;;;12.13;95.54;102277.66;4948395;28;20031;-79
2023/10/05 06:57:39;;;;;;;4.45;1.83;;;;;;;12.13;95.60;102277.66;4953623;28;20027;-79
2023/10/05 07:00:11;;;;;;;6.38;1.63;;;;;;;12.12;95.82;102283.78;4945332;29;20412;-80
2023/10/05 07:02:40;;;;;;;3.80;1.70;;;;;;;12.14;95.54;102287.22;4949062;28;20034;-80
2023/10/05 07:05:06;;;;;;;6.43;2.03;;;;;;;12.13;95.81;102289.00;4946467;29;20071;-79
2023/10/05 07:07:32;;;;;;;7.35;2.00;;;;;;;12.17;95.91;102302.00;4947543;29;20032;-79
2023/10/05 07:09:57;;;;;;;6.40;2.00;;;;;;;12.18;95.81;102296.75;4952757;28;20428;-80
2023/10/05 07:12:24;;;;;;;8.48;1.88;;;;;;;12.19;95.97;102301.09;4952863;29;20027;-80
2023/10/05 07:14:49;;;;;;;4.72;1.92;;;;;;;12.23;95.88;102294.09;4948102;29;20035;-80
2023/10/05 07:17:15;;;;;;;7.97;2.03;;;;;;;12.26;95.89;102299.31;4949111;29;20058;-80
2023/10/05 07:19:41;;;;;;;5.57;1.90;;;;;;;12.29;95.72;102308.00;4954439;29;20467;-80
2023/10/05 07:22:07;;;;;;;5.53;1.90;;;;;;;12.32;95.69;102307.09;4954652;28;20513;-80
2023/10/05 07:24:32;;;;;;;6.40;2.00;;;;;;;12.36;95.65;102316.63;4955518;28;20019;-79
2023/10/05 07:26:58;;;;;;;4.50;1.90;;;;;;;12.39;95.48;102318.31;4954362;29;20304;-79
2023/10/05 07:29:23;;;;;;;6.40;2.10;;;;;;;12.42;95.52;102313.09;4944157;28;20023;-80
2023/10/05 07:31:48;;;;;;;7.90;2.20;;;;;;;12.44;95.38;102312.19;4953965;29;20031;-80
2023/10/05 07:34:15;;;;;;;6.65;2.03;;;;;;;12.48;95.61;102313.00;4952735;28;20526;-80
2023/10/05 07:36:40;;;;;;;4.70;1.67;;;;;;;12.51;95.65;102327.78;4949368;29;20031;-80
2023/10/05 07:39:11;;;;;;;8.00;1.85;;;;;;;12.55;95.61;102330.34;4944575;29;20028;-80
2023/10/05 07:41:36;;;;;;;6.03;1.92;;;;;;;12.59;95.01;102328.56;4944066;29;20163;-80
2023/10/05 07:44:02;;;;;;;6.57;1.80;;;;;;;12.63;94.94;102339.88;4946362;28;20109;-80
2023/10/05 07:46:27;;;;;;;4.10;1.70;;;;;;;12.67;95.47;102336.31;4949619;28;20024;-80
2023/10/05 07:48:53;;;;;;;6.18;2.05;;;;;;;12.71;94.60;102341.50;4947947;29;20027;-80
2023/10/05 07:51:18;;;;;;;4.78;1.90;;;;;;;12.75;94.44;102342.34;4946195;29;20442;-80
2023/10/05 07:53:43;;;;;;;7.20;2.10;;;;;;;12.80;94.55;102348.38;4949058;29;20062;-80
2023/10/05 07:56:09;;;;;;;6.97;2.00;;;;;;;12.85;94.46;102349.19;4946486;29;20051;-80
2023/10/05 07:58:34;;;;;;;7.32;2.63;;;;;;;12.89;94.40;102353.50;4945722;29;20553;-79
2023/10/05 08:01:00;;;;;;;5.72;2.05;;;;;;;12.97;93.92;102348.19;4949366;29;20131;-79
2023/10/05 08:03:25;;;;;;;5.50;2.03;;;;;;;13.02;93.41;102345.50;4949271;28;20110;-80
2023/10/05 08:05:50;;;;;;;5.40;2.20;;;;;;;13.08;93.58;102353.28;4945980;29;20031;-80
2023/10/05 08:08:16;;;;;;;10.40;2.00;;;;;;;13.14;93.11;102360.19;4949319;29;20059;-80
2023/10/05 08:10:41;;;;;;;7.10;2.13;;;;;;;13.20;93.18;102355.75;4945225;28;20019;-80
2023/10/05 08:13:07;;;;;;;7.15;2.20;;;;;;;13.27;92.86;102358.28;4945303;28;20526;-80
2023/10/05 08:15:34;;;;;;;5.43;1.90;;;;;;;13.32;92.12;102361.72;4950153;29;20353;-84
2023/10/05 08:17:59;;;;;;;7.28;2.13;;;;;;;13.35;92.11;102362.53;4948925;29;20023;-79
2023/10/05 08:20:26;;;;;;;8.10;2.60;;;;;;;13.43;91.98;102366.81;4946872;28;20101;-80
2023/10/05 08:22:51;;;;;;;6.40;2.17;;;;;;;13.48;91.85;102359.78;4945013;28;20085;-81
2023/10/05 08:25:17;;;;;;;7.60;2.03;;;;;;;13.53;91.31;102364.94;4945955;29;20035;-80
2023/10/05 08:27:42;;;;;;;9.90;2.38;;;;;;;13.58;91.22;102368.38;4946309;28;20407;-80
2023/10/05 08:30:10;;;;;;;5.13;1.85;;;;;;;13.62;90.75;102368.28;4947202;28;20015;-80
2023/10/05 08:32:37;;;;;;;6.60;2.25;;;;;;;13.66;90.26;102374.38;4944399;29;20511;-80
2023/10/05 08:35:21;;;;;;;9.32;2.10;;;;;;;13.68;90.48;102377.78;4942042;29;20043;-80
2023/10/05 08:37:49;;;;;;;4.95;1.90;;;;;;;13.71;90.25;102377.75;4945107;29;20038;-80
2023/10/05 08:43:08;;;;;;;;;;;;;;;13.85;90.64;102371.47;4951301;28;20102;-80
2023/10/05 08:45:38;;;;;;;7.13;1.90;;;;;;;13.90;90.00;102373.16;4946964;28;19920;-80
2023/10/05 08:48:08;;;;;;;5.85;2.03;;;;;;;13.97;89.44;102368.69;4947838;28;20118;-80
2023/10/05 08:50:35;;;;;;;8.07;2.50;;;;;;;14.04;89.31;102380.75;4946991;29;20023;-80
2023/10/05 08:53:00;;;;;;;7.80;2.30;;;;;;;14.11;89.71;102373.66;4945430;28;20067;-80
2023/10/05 08:55:30;;;;;;;4.18;1.83;;;;;;;14.17;88.84;102380.59;4944975;29;20061;-80
2023/10/05 08:57:55;;;;;;;6.80;2.20;;;;;;;14.21;88.66;102383.13;4943647;28;20042;-80
2023/10/05 09:00:38;;;;;;;9.70;2.45;;;;;;;14.26;88.13;102385.66;4946192;29;20027;-80
2023/10/05 09:03:06;;;;;;;9.48;2.55;;;;;;;14.31;87.65;102390.81;4946254;28;20034;-80
2023/10/05 09:06:12;;;;;;;8.80;2.30;;;;;;;14.35;88.02;102393.34;4938916;29;20055;-80
2023/10/05 09:11:39;;;;;;;7.32;2.20;;;;;;;14.45;88.24;102401.91;4933029;29;20046;-80
2023/10/05 09:14:13;;;;;;;10.55;2.10;;;;;;;14.46;87.02;102413.28;4945077;29;20023;-80
2023/10/05 09:16:46;;;;;;;7.10;2.47;;;;;;;14.48;86.65;102414.09;4946115;29;20195;-80
2023/10/05 09:19:26;;;;;;;14.00;2.42;;;;;;;14.48;86.53;102421.97;4948280;29;20230;-80
2023/10/05 09:22:09;;;;;;;6.85;2.05;;;;;;;14.49;87.08;102423.69;4946088;28;20093;-80
2023/10/05 09:24:36;;;;;;;6.32;2.17;;;;;;;14.51;86.80;102437.63;4946002;29;20118;-80
2023/10/05 09:27:15;;;;;;;5.95;2.00;;;;;;;14.54;86.76;102440.19;4947291;28;20022;-80
2023/10/05 09:29:41;;;;;;;5.30;2.00;;;;;;;14.58;86.80;102439.25;4948169;29;20026;-80
2023/10/05 09:32:10;;;;;;;5.70;2.20;;;;;;;14.62;86.62;102446.16;4946850;28;20423;-80
2023/10/05 09:34:37;;;;;;;8.77;2.10;;;;;;;14.65;86.26;102446.13;4949569;29;20126;-80
2023/10/05 09:37:06;;;;;;;6.68;2.25;;;;;;;14.67;86.17;102446.06;4942766;29;20031;-80
2023/10/05 09:39:37;;;;;;;5.28;2.10;;;;;;;14.69;86.54;102439.94;4947886;29;20058;-80
2023/10/05 09:42:03;;;;;;;6.18;2.17;;;;;;;14.71;85.86;102445.16;4946760;29;20078;-80
2023/10/05 09:44:31;;;;;;;8.35;2.22;;;;;;;14.71;86.01;102443.41;4952391;28;20031;-80
2023/10/05 09:46:59;;;;;;;7.03;2.03;;;;;;;14.72;85.72;102442.50;4948236;28;20030;-80
2023/10/05 09:49:27;;;;;;;6.85;2.25;;;;;;;14.75;85.31;102436.38;4944681;28;20035;-80
2023/10/05 09:51:54;;;;;;;12.52;2.15;;;;;;;14.77;85.33;102418.00;4945996;28;20058;-80
2023/10/05 09:54:22;;;;;;;7.97;2.22;;;;;;;14.81;85.94;102424.91;4945312;29;20045;-80
2023/10/05 09:56:49;;;;;;;7.40;2.53;;;;;;;14.82;85.23;102421.41;4947365;28;20019;-80
2023/10/05 09:59:15;;;;;;;6.35;2.05;;;;;;;14.83;84.97;102423.13;4948554;28;20020;-80
2023/10/05 10:01:45;;;;;;;8.20;2.22;;;;;;;14.85;85.71;102426.59;4948872;28;20031;-80
2023/10/05 10:04:11;;;;;;;6.78;2.00;;;;;;;14.89;85.04;102427.41;4947621;28;20032;-80
2023/10/05 10:06:37;;;;;;;6.30;1.90;;;;;;;14.92;84.57;102428.19;4945176;28;20029;-80
2023/10/05 10:09:09;;;;;;;9.23;2.28;;;;;;;14.94;84.56;102430.81;4947325;28;20320;-80
2023/10/05 10:11:36;;;;;;;6.25;2.22;;;;;;;14.95;84.31;102432.50;4946657;28;20035;-80
2023/10/05 10:14:14;;;;;;;6.10;2.00;;;;;;;14.96;84.38;102429.00;4945476;28;20026;-80
2023/10/05 10:16:42;;;;;;;8.35;2.15;;;;;;;15.00;85.01;102431.56;4944792;29;20046;-80
2023/10/05 10:19:19;;;;;;;7.30;2.00;;;;;;;15.05;84.83;102433.19;4949302;28;20055;-80
2023/10/05 10:21:53;;;;;;;6.40;1.95;;;;;;;15.07;83.79;102431.41;4949256;29;20059;-83
2023/10/05 10:24:19;;;;;;;5.88;2.00;;;;;;;15.09;83.96;102433.13;4949649;28;20102;-80
2023/10/05 10:27:07;;;;;;;7.50;2.13;;;;;;;15.14;84.40;102430.41;4949277;28;20051;-80
2023/10/05 10:29:44;;;;;;;6.70;1.95;;;;;;;15.20;84.55;102432.06;4945801;29;20023;-80
2023/10/05 10:32:23;;;;;;;7.78;2.50;;;;;;;15.24;84.93;102431.94;4946875;29;20027;-80
2023/10/05 10:34:56;;;;;;;9.90;2.15;;;;;;;15.28;83.96;102430.16;4949145;29;20070;-80
2023/10/05 10:37:39;;;;;;;7.30;2.30;;;;;;;15.33;83.88;102434.41;4940873;28;20356;-81
2023/10/05 10:40:13;;;;;;;8.13;2.20;;;;;;;15.35;83.03;102429.13;4948584;28;20029;-82
2023/10/05 10:42:55;;;;;;;9.82;2.25;;;;;;;15.39;82.94;102435.16;4945644;29;20070;-80
2023/10/05 10:45:28;;;;;;;5.72;2.20;;;;;;;15.42;82.57;102429.84;4946365;29;20069;-79
2023/10/05 10:47:54;;;;;;;5.07;1.88;;;;;;;15.47;83.08;102428.00;4946356;29;20023;-79
2023/10/05 10:50:23;;;;;;;5.38;2.00;;;;;;;15.49;82.52;102423.59;4945090;28;20156;-81
2023/10/05 10:52:50;;;;;;;7.88;2.45;;;;;;;15.54;83.21;102431.38;4944292;28;20384;-81
2023/10/05 10:55:16;;;;;;;6.45;2.00;;;;;;;15.57;83.58;102426.06;4949134;28;20106;-80
2023/10/05 10:57:45;;;;;;;7.95;2.20;;;;;;;15.60;83.24;102426.00;4942095;29;20055;-80
2023/10/05 11:02:56;;;;;;;6.00;2.05;;;;;;;15.70;81.97;102429.28;4949119;29;20042;-81
2023/10/05 11:05:24;;;;;;;5.30;2.08;;;;;;;15.73;82.38;102426.56;4945201;29;20867;-81
2023/10/05 11:07:50;;;;;;;10.98;2.10;;;;;;;15.75;82.50;102424.78;4957080;28;20652;-81
2023/10/05 11:10:19;;;;;;;9.30;2.03;;;;;;;15.81;82.69;102418.53;4944552;29;20023;-81
2023/10/05 11:12:53;;;;;;;7.72;2.03;;;;;;;15.84;81.81;102418.47;4945514;28;20055;-81
2023/10/05 11:15:20;;;;;;;5.57;2.00;;;;;;;15.88;81.71;102413.16;4952173;29;20094;-81
2023/10/05 11:17:46;;;;;;;7.50;2.03;;;;;;;15.95;82.98;102416.50;4947276;28;20039;-81
2023/10/05 11:20:25;;;;;;;9.00;1.98;;;;;;;16.00;82.22;102414.63;4954599;28;20059;-81
2023/10/05 11:22:55;;;;;;;5.40;2.10;;;;;;;16.07;81.38;102415.34;4942008;28;20491;-81
2023/10/05 11:25:31;;;;;;;8.02;2.17;;;;;;;16.12;81.82;102408.22;4936814;29;20134;-81
2023/10/05 11:27:59;;;;;;;7.32;2.33;;;;;;;16.16;81.66;102406.38;4947298;29;20038;-81
2023/10/05 11:30:48;;;;;;;5.57;1.88;;;;;;;16.22;81.01;102411.47;4941454;28;20031;-81
2023/10/05 11:33:16;;;;;;;9.55;2.05;;;;;;;16.25;80.84;102419.28;4935387;29;20032;-81
2023/10/05 11:35:49;;;;;;;6.13;2.03;;;;;;;16.29;80.40;102414.81;4902119;29;1013500;-81
2023/10/05 11:38:16;;;;;;;6.18;2.25;;;;;;;16.31;79.56;102418.28;4940176;29;20559;-81
2023/10/05 11:40:53;;;;;;;8.18;2.25;;;;;;;16.35;79.37;102419.94;4950327;29;20097;-81
2023/10/05 11:43:20;;;;;;;10.38;2.05;;;;;;;16.39;79.52;102413.72;4948115;28;20035;-81
2023/10/05 11:45:56;;;;;;;6.88;1.88;;;;;;;16.45;80.75;102404.81;4948743;28;20471;-81
2023/10/05 11:48:40;;;;;;;6.95;1.70;;;;;;;16.52;79.59;102406.34;4947170;29;20399;-81
2023/10/05 11:51:09;;;;;;;5.70;1.70;;;;;;;16.57;77.63;102416.78;4943818;29;20464;-82
2023/10/05 11:53:35;;;;;;;5.75;2.00;;;;;;;16.61;77.08;102426.28;4945246;29;20055;-81